Aviation Digital Data Service (ADDS)

Output produced by METARs form (0831 UTC 21 January 2017)
found at http://www.aviationweather.gov/adds/metars/
 
KILG 210751Z 00000KT 3/4SM R01/3500V4500FT BR VV003 06/06 A2994 RMK AO2 SLP138 T00560056
KILG 210536Z 2106/2206 16005KT 1SM BR OVC003 
     FM211500 21004KT 3SM BR BKN006 OVC015 
     FM211700 17004KT P6SM BKN015 
     FM220200 00000KT 4SM BR OVC002